sensor_id;sensor_type;location;lat;lon;timestamp;pressure;altitude;pressure_sealevel;temperature;humidity
43364;BME280;40636;52.424;-1.948;2022-09-12T00:00:51;99676.69;;;15.87;100.00
43364;BME280;40636;52.424;-1.948;2022-09-12T00:03:18;99675.88;;;15.86;100.00
43364;BME280;40636;52.424;-1.948;2022-09-12T00:05:46;99668.97;;;15.84;100.00
43364;BME280;40636;52.424;-1.948;2022-09-12T00:08:13;99677.81;;;15.86;100.00
43364;BME280;40636;52.424;-1.948;2022-09-12T00:10:41;99666.75;;;15.86;100.00
43364;BME280;40636;52.424;-1.948;2022-09-12T00:13:08;99664.25;;;15.84;100.00
43364;BME280;40636;52.424;-1.948;2022-09-12T00:15:42;99663.97;;;15.86;100.00
43364;BME280;40636;52.424;-1.948;2022-09-12T00:18:13;99658.72;;;15.84;100.00
43364;BME280;40636;52.424;-1.948;2022-09-12T00:20:45;99650.41;;;15.84;100.00
43364;BME280;40636;52.424;-1.948;2022-09-12T00:23:13;99646.00;;;15.83;100.00
43364;BME280;40636;52.424;-1.948;2022-09-12T00:25:44;99646.59;;;15.80;100.00
43364;BME280;40636;52.424;-1.948;2022-09-12T00:28:12;99637.19;;;15.81;100.00
43364;BME280;40636;52.424;-1.948;2022-09-12T00:30:43;99634.22;;;15.72;100.00
43364;BME280;40636;52.424;-1.948;2022-09-12T00:33:11;99640.28;;;15.75;100.00
43364;BME280;40636;52.424;-1.948;2022-09-12T00:35:45;99646.94;;;15.73;100.00
43364;BME280;40636;52.424;-1.948;2022-09-12T00:38:13;99640.28;;;15.75;100.00
43364;BME280;40636;52.424;-1.948;2022-09-12T00:40:41;99642.22;;;15.74;100.00
43364;BME280;40636;52.424;-1.948;2022-09-12T00:43:39;99634.50;;;15.71;100.00
43364;BME280;40636;52.424;-1.948;2022-09-12T00:48:46;99633.13;;;15.73;100.00
43364;BME280;40636;52.424;-1.948;2022-09-12T00:51:15;99630.91;;;15.70;100.00
43364;BME280;40636;52.424;-1.948;2022-09-12T00:53:43;99628.22;;;15.65;100.00
43364;BME280;40636;52.424;-1.948;2022-09-12T00:56:14;99626.00;;;15.67;100.00
43364;BME280;40636;52.424;-1.948;2022-09-12T00:58:48;99631.53;;;15.67;100.00
43364;BME280;40636;52.424;-1.948;2022-09-12T01:01:16;99626.81;;;15.68;100.00
43364;BME280;40636;52.424;-1.948;2022-09-12T01:03:43;99617.44;;;15.64;100.00
43364;BME280;40636;52.424;-1.948;2022-09-12T01:06:20;99614.09;;;15.62;100.00
43364;BME280;40636;52.424;-1.948;2022-09-12T01:08:50;99616.03;;;15.61;100.00
43364;BME280;40636;52.424;-1.948;2022-09-12T01:11:19;99605.28;;;15.60;100.00
43364;BME280;40636;52.424;-1.948;2022-09-12T01:13:47;99614.41;;;15.60;100.00
43364;BME280;40636;52.424;-1.948;2022-09-12T01:16:14;99619.34;;;15.63;100.00
43364;BME280;40636;52.424;-1.948;2022-09-12T01:22:13;99617.69;;;15.62;100.00
43364;BME280;40636;52.424;-1.948;2022-09-12T01:27:39;99610.50;;;15.61;100.00
43364;BME280;40636;52.424;-1.948;2022-09-12T01:32:54;99612.00;;;15.54;100.00
43364;BME280;40636;52.424;-1.948;2022-09-12T01:38:29;99597.31;;;15.53;100.00
43364;BME280;40636;52.424;-1.948;2022-09-12T01:44:28;99584.84;;;15.56;100.00
43364;BME280;40636;52.424;-1.948;2022-09-12T01:52:31;99581.56;;;15.54;100.00
43364;BME280;40636;52.424;-1.948;2022-09-12T01:55:08;99583.78;;;15.52;100.00
43364;BME280;40636;52.424;-1.948;2022-09-12T01:57:38;99575.50;;;15.52;100.00
43364;BME280;40636;52.424;-1.948;2022-09-12T02:00:10;99584.91;;;15.51;100.00
43364;BME280;40636;52.424;-1.948;2022-09-12T02:02:42;99579.06;;;15.52;100.00
43364;BME280;40636;52.424;-1.948;2022-09-12T02:05:36;99585.44;;;15.53;100.00
43364;BME280;40636;52.424;-1.948;2022-09-12T02:10:42;99585.72;;;15.51;100.00
43364;BME280;40636;52.424;-1.948;2022-09-12T02:13:14;99585.22;;;15.49;100.00
43364;BME280;40636;52.424;-1.948;2022-09-12T02:15:48;99586.31;;;15.48;100.00
43364;BME280;40636;52.424;-1.948;2022-09-12T02:18:17;99591.31;;;15.46;100.00
43364;BME280;40636;52.424;-1.948;2022-09-12T02:20:48;99595.78;;;15.42;100.00
43364;BME280;40636;52.424;-1.948;2022-09-12T02:23:27;99585.28;;;15.39;100.00
43364;BME280;40636;52.424;-1.948;2022-09-12T02:25:59;99594.66;;;15.43;100.00
43364;BME280;40636;52.424;-1.948;2022-09-12T02:28:30;99592.72;;;15.43;100.00
43364;BME280;40636;52.424;-1.948;2022-09-12T02:35:21;99587.22;;;15.38;100.00
43364;BME280;40636;52.424;-1.948;2022-09-12T02:37:59;99582.81;;;15.37;100.00
43364;BME280;40636;52.424;-1.948;2022-09-12T02:40:29;99581.75;;;15.33;100.00
43364;BME280;40636;52.424;-1.948;2022-09-12T02:42:56;99583.41;;;15.34;100.00
43364;BME280;40636;52.424;-1.948;2022-09-12T02:45:24;99574.84;;;15.36;100.00
43364;BME280;40636;52.424;-1.948;2022-09-12T02:48:06;99582.00;;;15.37;100.00
43364;BME280;40636;52.424;-1.948;2022-09-12T02:50:37;99576.22;;;15.33;100.00
43364;BME280;40636;52.424;-1.948;2022-09-12T02:53:06;99577.88;;;15.34;100.00
43364;BME280;40636;52.424;-1.948;2022-09-12T02:55:35;99577.66;;;15.31;100.00
43364;BME280;40636;52.424;-1.948;2022-09-12T02:58:04;99572.34;;;15.34;100.00
43364;BME280;40636;52.424;-1.948;2022-09-12T03:00:36;99563.28;;;15.29;100.00
43364;BME280;40636;52.424;-1.948;2022-09-12T03:09:29;99556.00;;;15.38;100.00
43364;BME280;40636;52.424;-1.948;2022-09-12T03:12:44;99551.28;;;15.38;100.00
43364;BME280;40636;52.424;-1.948;2022-09-12T03:21:02;99527.88;;;15.31;100.00
43364;BME280;40636;52.424;-1.948;2022-09-12T03:23:43;99526.28;;;15.25;100.00
43364;BME280;40636;52.424;-1.948;2022-09-12T03:26:20;99523.22;;;15.26;100.00
43364;BME280;40636;52.424;-1.948;2022-09-12T03:28:49;99519.63;;;15.26;100.00
43364;BME280;40636;52.424;-1.948;2022-09-12T03:31:18;99523.81;;;15.23;100.00
43364;BME280;40636;52.424;-1.948;2022-09-12T03:34:24;99513.06;;;15.21;100.00
43364;BME280;40636;52.424;-1.948;2022-09-12T03:36:52;99512.81;;;15.18;100.00
43364;BME280;40636;52.424;-1.948;2022-09-12T03:39:22;99508.09;;;15.18;100.00
43364;BME280;40636;52.424;-1.948;2022-09-12T03:41:55;99501.75;;;15.18;100.00
43364;BME280;40636;52.424;-1.948;2022-09-12T03:44:23;99509.75;;;15.19;100.00
43364;BME280;40636;52.424;-1.948;2022-09-12T03:46:50;99502.00;;;15.21;100.00
43364;BME280;40636;52.424;-1.948;2022-09-12T03:49:17;99496.47;;;15.21;100.00
43364;BME280;40636;52.424;-1.948;2022-09-12T03:51:44;99499.75;;;15.23;100.00
43364;BME280;40636;52.424;-1.948;2022-09-12T03:54:11;99485.34;;;15.27;100.00
43364;BME280;40636;52.424;-1.948;2022-09-12T03:56:55;99486.16;;;15.27;100.00
43364;BME280;40636;52.424;-1.948;2022-09-12T03:59:31;99477.63;;;15.23;100.00
43364;BME280;40636;52.424;-1.948;2022-09-12T04:02:04;99483.41;;;15.27;100.00
43364;BME280;40636;52.424;-1.948;2022-09-12T04:04:49;99471.28;;;15.23;100.00
43364;BME280;40636;52.424;-1.948;2022-09-12T04:07:29;99482.91;;;15.20;100.00
43364;BME280;40636;52.424;-1.948;2022-09-12T04:10:10;99490.38;;;15.19;100.00
43364;BME280;40636;52.424;-1.948;2022-09-12T04:12:54;99492.84;;;15.21;100.00
43364;BME280;40636;52.424;-1.948;2022-09-12T04:15:21;99486.22;;;15.22;100.00
43364;BME280;40636;52.424;-1.948;2022-09-12T04:17:47;99494.22;;;15.23;100.00
43364;BME280;40636;52.424;-1.948;2022-09-12T04:20:17;99487.63;;;15.19;100.00
43364;BME280;40636;52.424;-1.948;2022-09-12T04:22:44;99500.63;;;15.19;100.00
43364;BME280;40636;52.424;-1.948;2022-09-12T04:25:11;99499.22;;;15.21;100.00
43364;BME280;40636;52.424;-1.948;2022-09-12T04:27:39;99503.91;;;15.21;100.00
43364;BME280;40636;52.424;-1.948;2022-09-12T04:38:36;99503.97;;;15.16;100.00
43364;BME280;40636;52.424;-1.948;2022-09-12T04:41:14;99503.97;;;15.16;100.00
43364;BME280;40636;52.424;-1.948;2022-09-12T04:43:42;99490.69;;;15.18;100.00
43364;BME280;40636;52.424;-1.948;2022-09-12T04:47:26;99498.97;;;15.18;100.00
43364;BME280;40636;52.424;-1.948;2022-09-12T04:49:54;99494.78;;;15.20;100.00
43364;BME280;40636;52.424;-1.948;2022-09-12T04:52:21;99481.78;;;15.21;100.00
43364;BME280;40636;52.424;-1.948;2022-09-12T04:54:47;99491.16;;;15.25;100.00
43364;BME280;40636;52.424;-1.948;2022-09-12T04:57:21;99486.16;;;15.27;100.00
43364;BME280;40636;52.424;-1.948;2022-09-12T05:06:57;99490.81;;;15.32;100.00
43364;BME280;40636;52.424;-1.948;2022-09-12T05:09:24;99489.19;;;15.31;100.00
43364;BME280;40636;52.424;-1.948;2022-09-12T05:16:13;99480.03;;;15.30;100.00
43364;BME280;40636;52.424;-1.948;2022-09-12T05:18:41;99486.41;;;15.31;100.00
43364;BME280;40636;52.424;-1.948;2022-09-12T05:21:12;99481.78;;;15.26;100.00
43364;BME280;40636;52.424;-1.948;2022-09-12T05:24:14;99480.34;;;15.29;100.00
43364;BME280;40636;52.424;-1.948;2022-09-12T05:27:00;99475.94;;;15.28;100.00
43364;BME280;40636;52.424;-1.948;2022-09-12T05:38:04;99491.66;;;15.32;100.00
43364;BME280;40636;52.424;-1.948;2022-09-12T05:40:34;99494.72;;;15.31;100.00
43364;BME280;40636;52.424;-1.948;2022-09-12T05:43:02;99494.47;;;15.27;100.00
43364;BME280;40636;52.424;-1.948;2022-09-12T05:45:30;99486.44;;;15.26;100.00
43364;BME280;40636;52.424;-1.948;2022-09-12T05:47:57;99489.00;;;15.22;100.00
43364;BME280;40636;52.424;-1.948;2022-09-12T05:50:25;99482.66;;;15.21;100.00
43364;BME280;40636;52.424;-1.948;2022-09-12T05:52:51;99495.34;;;15.22;100.00
43364;BME280;40636;52.424;-1.948;2022-09-12T05:55:24;99496.69;;;15.25;100.00
43364;BME280;40636;52.424;-1.948;2022-09-12T06:06:41;99496.09;;;15.28;100.00
43364;BME280;40636;52.424;-1.948;2022-09-12T06:09:12;99492.53;;;15.28;100.00
43364;BME280;40636;52.424;-1.948;2022-09-12T06:11:40;99486.44;;;15.26;100.00
43364;BME280;40636;52.424;-1.948;2022-09-12T06:14:08;99485.56;;;15.30;100.00
43364;BME280;40636;52.424;-1.948;2022-09-12T06:16:45;99492.78;;;15.31;100.00
43364;BME280;40636;52.424;-1.948;2022-09-12T06:19:18;99496.34;;;15.32;100.00
43364;BME280;40636;52.424;-1.948;2022-09-12T06:21:45;99493.59;;;15.32;100.00
43364;BME280;40636;52.424;-1.948;2022-09-12T06:24:15;99486.34;;;15.36;100.00
43364;BME280;40636;52.424;-1.948;2022-09-12T06:26:42;99488.81;;;15.37;100.00
43364;BME280;40636;52.424;-1.948;2022-09-12T06:29:18;99507.88;;;15.39;100.00
43364;BME280;40636;52.424;-1.948;2022-09-12T06:31:45;99503.75;;;15.36;100.00
43364;BME280;40636;52.424;-1.948;2022-09-12T06:34:14;99502.34;;;15.39;100.00
43364;BME280;40636;52.424;-1.948;2022-09-12T06:36:45;99510.06;;;15.42;100.00
43364;BME280;40636;52.424;-1.948;2022-09-12T06:39:18;99506.16;;;15.43;100.00
43364;BME280;40636;52.424;-1.948;2022-09-12T06:41:45;99502.25;;;15.49;100.00
43364;BME280;40636;52.424;-1.948;2022-09-12T06:44:21;99501.13;;;15.50;100.00
43364;BME280;40636;52.424;-1.948;2022-09-12T06:46:48;99501.38;;;15.54;100.00
43364;BME280;40636;52.424;-1.948;2022-09-12T06:49:15;99505.16;;;15.58;100.00
43364;BME280;40636;52.424;-1.948;2022-09-12T06:51:43;99512.06;;;15.60;100.00
43364;BME280;40636;52.424;-1.948;2022-09-12T06:54:14;99505.69;;;15.65;100.00
43364;BME280;40636;52.424;-1.948;2022-09-12T06:56:42;99493.72;;;15.69;100.00
43364;BME280;40636;52.424;-1.948;2022-09-12T06:59:11;99495.38;;;15.70;100.00
43364;BME280;40636;52.424;-1.948;2022-09-12T07:01:39;99502.50;;;15.77;100.00
43364;BME280;40636;52.424;-1.948;2022-09-12T07:04:07;99505.19;;;15.82;100.00
43364;BME280;40636;52.424;-1.948;2022-09-12T07:06:36;99511.19;;;15.89;100.00
43364;BME280;40636;52.424;-1.948;2022-09-12T07:09:05;99509.22;;;15.89;100.00
43364;BME280;40636;52.424;-1.948;2022-09-12T07:11:34;99503.41;;;15.91;100.00
43364;BME280;40636;52.424;-1.948;2022-09-12T07:14:03;99505.56;;;15.94;100.00
43364;BME280;40636;52.424;-1.948;2022-09-12T07:16:31;99502.00;;;15.93;100.00
43364;BME280;40636;52.424;-1.948;2022-09-12T07:19:01;99491.75;;;15.94;100.00
43364;BME280;40636;52.424;-1.948;2022-09-12T07:21:28;99500.00;;;15.99;100.00
43364;BME280;40636;52.424;-1.948;2022-09-12T07:23:56;99504.91;;;16.02;100.00
43364;BME280;40636;52.424;-1.948;2022-09-12T07:26:27;99495.72;;;16.07;100.00
43364;BME280;40636;52.424;-1.948;2022-09-12T07:28:56;99497.34;;;16.08;100.00
43364;BME280;40636;52.424;-1.948;2022-09-12T07:32:03;99499.47;;;16.16;100.00
43364;BME280;40636;52.424;-1.948;2022-09-12T07:38:54;99490.25;;;16.20;100.00
43364;BME280;40636;52.424;-1.948;2022-09-12T07:41:27;99485.78;;;16.24;100.00
43364;BME280;40636;52.424;-1.948;2022-09-12T07:43:58;99488.38;;;16.35;100.00
43364;BME280;40636;52.424;-1.948;2022-09-12T07:46:26;99489.97;;;16.41;100.00
43364;BME280;40636;52.424;-1.948;2022-09-12T07:48:55;99487.13;;;16.46;100.00
43364;BME280;40636;52.424;-1.948;2022-09-12T07:51:23;99481.50;;;16.51;100.00
43364;BME280;40636;52.424;-1.948;2022-09-12T07:53:50;99487.34;;;16.49;100.00
43364;BME280;40636;52.424;-1.948;2022-09-12T07:56:18;99483.59;;;16.59;100.00
43364;BME280;40636;52.424;-1.948;2022-09-12T07:58:45;99498.41;;;16.68;100.00
43364;BME280;40636;52.424;-1.948;2022-09-12T08:01:14;99498.84;;;16.76;100.00
43364;BME280;40636;52.424;-1.948;2022-09-12T08:03:44;99493.75;;;16.83;100.00
43364;BME280;40636;52.424;-1.948;2022-09-12T08:06:17;99491.22;;;16.86;100.00
43364;BME280;40636;52.424;-1.948;2022-09-12T08:08:47;99496.44;;;16.88;100.00
43364;BME280;40636;52.424;-1.948;2022-09-12T08:11:19;99488.34;;;16.91;100.00
43364;BME280;40636;52.424;-1.948;2022-09-12T08:13:55;99478.59;;;16.94;100.00
43364;BME280;40636;52.424;-1.948;2022-09-12T08:16:29;99486.31;;;16.97;100.00
43364;BME280;40636;52.424;-1.948;2022-09-12T08:18:56;99484.06;;;16.99;100.00
43364;BME280;40636;52.424;-1.948;2022-09-12T08:21:27;99484.56;;;17.01;100.00
43364;BME280;40636;52.424;-1.948;2022-09-12T08:23:56;99477.50;;;17.09;100.00
43364;BME280;40636;52.424;-1.948;2022-09-12T08:26:23;99471.34;;;17.12;100.00
43364;BME280;40636;52.424;-1.948;2022-09-12T08:28:50;99473.94;;;17.22;100.00
43364;BME280;40636;52.424;-1.948;2022-09-12T08:31:19;99479.59;;;17.31;100.00
43364;BME280;40636;52.424;-1.948;2022-09-12T08:33:46;99471.56;;;17.43;100.00
43364;BME280;40636;52.424;-1.948;2022-09-12T08:36:15;99479.06;;;17.56;100.00
43364;BME280;40636;52.424;-1.948;2022-09-12T08:38:44;99476.63;;;17.68;100.00
43364;BME280;40636;52.424;-1.948;2022-09-12T08:49:47;99488.88;;;17.95;100.00
43364;BME280;40636;52.424;-1.948;2022-09-12T08:52:35;99493.16;;;18.01;100.00
43364;BME280;40636;52.424;-1.948;2022-09-12T08:55:05;99487.94;;;17.99;100.00
43364;BME280;40636;52.424;-1.948;2022-09-12T08:57:38;99485.84;;;18.05;100.00
43364;BME280;40636;52.424;-1.948;2022-09-12T09:00:10;99493.94;;;18.15;100.00
43364;BME280;40636;52.424;-1.948;2022-09-12T09:03:03;99491.56;;;18.22;100.00
43364;BME280;40636;52.424;-1.948;2022-09-12T09:16:59;99506.34;;;18.68;98.38
43364;BME280;40636;52.424;-1.948;2022-09-12T09:19:31;99501.00;;;18.71;98.81
43364;BME280;40636;52.424;-1.948;2022-09-12T09:22:02;99505.66;;;18.85;98.57
43364;BME280;40636;52.424;-1.948;2022-09-12T09:24:38;99500.81;;;18.90;97.15
43364;BME280;40636;52.424;-1.948;2022-09-12T09:27:30;99499.34;;;18.93;97.12
43364;BME280;40636;52.424;-1.948;2022-09-12T09:30:16;99498.41;;;18.97;96.81
43364;BME280;40636;52.424;-1.948;2022-09-12T09:32:48;99502.72;;;19.04;97.02
43364;BME280;40636;52.424;-1.948;2022-09-12T09:43:37;99482.59;;;19.77;93.87
43364;BME280;40636;52.424;-1.948;2022-09-12T09:46:04;99489.16;;;19.82;94.06
43364;BME280;40636;52.424;-1.948;2022-09-12T09:48:36;99501.31;;;19.86;91.70
43364;BME280;40636;52.424;-1.948;2022-09-12T09:51:06;99500.13;;;19.78;91.07
43364;BME280;40636;52.424;-1.948;2022-09-12T09:53:36;99491.97;;;19.82;92.13
43364;BME280;40636;52.424;-1.948;2022-09-12T09:56:14;99494.56;;;19.78;91.53
43364;BME280;40636;52.424;-1.948;2022-09-12T09:58:48;99483.91;;;19.71;91.78
43364;BME280;40636;52.424;-1.948;2022-09-12T10:01:16;99484.06;;;19.75;91.50
43364;BME280;40636;52.424;-1.948;2022-09-12T10:03:52;99480.31;;;19.80;92.44
43364;BME280;40636;52.424;-1.948;2022-09-12T10:08:47;99479.47;;;19.70;92.48
43364;BME280;40636;52.424;-1.948;2022-09-12T10:16:23;99488.00;;;19.43;95.42
43364;BME280;40636;52.424;-1.948;2022-09-12T10:18:51;99494.00;;;19.27;99.33
43364;BME280;40636;52.424;-1.948;2022-09-12T10:29:49;99508.94;;;18.64;100.00
43364;BME280;40636;52.424;-1.948;2022-09-12T10:32:39;99506.41;;;18.54;100.00
43364;BME280;40636;52.424;-1.948;2022-09-12T10:35:19;99504.69;;;18.44;100.00
43364;BME280;40636;52.424;-1.948;2022-09-12T10:40:34;99513.50;;;18.10;100.00
43364;BME280;40636;52.424;-1.948;2022-09-12T10:45:51;99512.72;;;17.96;100.00
43364;BME280;40636;52.424;-1.948;2022-09-12T10:50:55;99524.63;;;17.83;100.00
43364;BME280;40636;52.424;-1.948;2022-09-12T10:53:38;99523.28;;;17.80;100.00
43364;BME280;40636;52.424;-1.948;2022-09-12T10:56:17;99522.34;;;17.71;100.00
43364;BME280;40636;52.424;-1.948;2022-09-12T11:06:57;99515.69;;;17.72;100.00
43364;BME280;40636;52.424;-1.948;2022-09-12T11:09:49;99511.38;;;17.80;100.00
43364;BME280;40636;52.424;-1.948;2022-09-12T11:15:40;99513.53;;;17.83;100.00
43364;BME280;40636;52.424;-1.948;2022-09-12T11:43:22;99526.03;;;17.66;100.00
43364;BME280;40636;52.424;-1.948;2022-09-12T11:45:51;99525.44;;;17.69;100.00
43364;BME280;40636;52.424;-1.948;2022-09-12T11:51:23;99519.06;;;17.69;100.00
43364;BME280;40636;52.424;-1.948;2022-09-12T11:56:46;99508.31;;;17.81;100.00
43364;BME280;40636;52.424;-1.948;2022-09-12T11:59:27;99507.56;;;17.89;100.00
43364;BME280;40636;52.424;-1.948;2022-09-12T12:01:58;99502.22;;;17.93;100.00
43364;BME280;40636;52.424;-1.948;2022-09-12T12:04:33;99502.63;;;18.00;100.00
43364;BME280;40636;52.424;-1.948;2022-09-12T12:07:09;99497.88;;;18.14;100.00
43364;BME280;40636;52.424;-1.948;2022-09-12T12:09:50;99504.81;;;18.25;100.00
43364;BME280;40636;52.424;-1.948;2022-09-12T12:12:24;99506.56;;;18.35;100.00
43364;BME280;40636;52.424;-1.948;2022-09-12T12:14:54;99494.41;;;18.45;100.00
43364;BME280;40636;52.424;-1.948;2022-09-12T12:17:23;99504.31;;;18.60;100.00
43364;BME280;40636;52.424;-1.948;2022-09-12T12:19:58;99498.72;;;18.73;100.00
43364;BME280;40636;52.424;-1.948;2022-09-12T12:22:34;99499.47;;;18.88;100.00
43364;BME280;40636;52.424;-1.948;2022-09-12T12:25:23;99493.03;;;19.01;100.00
43364;BME280;40636;52.424;-1.948;2022-09-12T12:27:57;99494.03;;;19.05;100.00
43364;BME280;40636;52.424;-1.948;2022-09-12T12:43:48;99493.41;;;19.79;100.00
43364;BME280;40636;52.424;-1.948;2022-09-12T12:46:20;99485.59;;;19.90;100.00
43364;BME280;40636;52.424;-1.948;2022-09-12T12:51:29;99493.16;;;20.15;100.00
43364;BME280;40636;52.424;-1.948;2022-09-12T12:53:59;99494.81;;;20.25;100.00
43364;BME280;40636;52.424;-1.948;2022-09-12T12:56:42;99491.06;;;20.38;100.00
43364;BME280;40636;52.424;-1.948;2022-09-12T12:59:22;99481.56;;;20.48;100.00
43364;BME280;40636;52.424;-1.948;2022-09-12T13:01:52;99489.28;;;20.51;100.00
43364;BME280;40636;52.424;-1.948;2022-09-12T13:04:23;99488.81;;;20.58;100.00
43364;BME280;40636;52.424;-1.948;2022-09-12T13:06:57;99485.34;;;20.69;100.00
43364;BME280;40636;52.424;-1.948;2022-09-12T13:09:43;99474.53;;;20.76;99.91
43364;BME280;40636;52.424;-1.948;2022-09-12T13:12:27;99471.06;;;20.80;100.00
43364;BME280;40636;52.424;-1.948;2022-09-12T13:14:56;99483.03;;;20.89;100.00
43364;BME280;40636;52.424;-1.948;2022-09-12T13:20:18;99468.25;;;20.88;100.00
43364;BME280;40636;52.424;-1.948;2022-09-12T13:22:56;99471.38;;;20.95;100.00
43364;BME280;40636;52.424;-1.948;2022-09-12T13:25:28;99473.81;;;20.97;100.00
43364;BME280;40636;52.424;-1.948;2022-09-12T13:30:34;99476.44;;;21.02;98.06
43364;BME280;40636;52.424;-1.948;2022-09-12T13:33:34;99479.88;;;21.08;100.00
43364;BME280;40636;52.424;-1.948;2022-09-12T13:44:02;99477.88;;;21.17;94.90
43364;BME280;40636;52.424;-1.948;2022-09-12T13:46:31;99474.44;;;21.11;97.32
43364;BME280;40636;52.424;-1.948;2022-09-12T13:49:05;99477.03;;;21.16;96.80
43364;BME280;40636;52.424;-1.948;2022-09-12T13:51:34;99470.81;;;21.19;97.27
43364;BME280;40636;52.424;-1.948;2022-09-12T13:54:03;99476.09;;;21.12;100.00
43364;BME280;40636;52.424;-1.948;2022-09-12T13:56:30;99469.19;;;21.18;99.98
43364;BME280;40636;52.424;-1.948;2022-09-12T13:58:59;99475.41;;;21.15;99.76
43364;BME280;40636;52.424;-1.948;2022-09-12T14:01:40;99474.81;;;21.01;98.70
43364;BME280;40636;52.424;-1.948;2022-09-12T14:04:15;99473.34;;;20.95;100.00
43364;BME280;40636;52.424;-1.948;2022-09-12T14:07:08;99468.25;;;20.97;100.00
43364;BME280;40636;52.424;-1.948;2022-09-12T14:09:40;99471.56;;;20.90;97.45
43364;BME280;40636;52.424;-1.948;2022-09-12T14:12:35;99476.13;;;20.95;99.39
43364;BME280;40636;52.424;-1.948;2022-09-12T14:15:24;99468.72;;;21.08;97.50
43364;BME280;40636;52.424;-1.948;2022-09-12T14:17:55;99464.78;;;21.09;97.59
43364;BME280;40636;52.424;-1.948;2022-09-12T14:20:23;99467.38;;;21.14;97.23
43364;BME280;40636;52.424;-1.948;2022-09-12T14:22:53;99452.63;;;21.05;98.01
43364;BME280;40636;52.424;-1.948;2022-09-12T14:25:22;99456.84;;;21.19;98.43
43364;BME280;40636;52.424;-1.948;2022-09-12T14:27:53;99460.78;;;21.27;97.61
43364;BME280;40636;52.424;-1.948;2022-09-12T14:35:36;99450.28;;;21.33;97.38
43364;BME280;40636;52.424;-1.948;2022-09-12T14:40:45;99437.75;;;21.39;93.26
43364;BME280;40636;52.424;-1.948;2022-09-12T14:43:27;99430.84;;;21.45;93.34
43364;BME280;40636;52.424;-1.948;2022-09-12T14:45:57;99438.84;;;21.55;92.91
43364;BME280;40636;52.424;-1.948;2022-09-12T14:48:27;99431.72;;;21.66;93.07
43364;BME280;40636;52.424;-1.948;2022-09-12T14:50:56;99435.75;;;21.77;91.88
43364;BME280;40636;52.424;-1.948;2022-09-12T14:53:35;99436.06;;;21.85;88.19
43364;BME280;40636;52.424;-1.948;2022-09-12T14:56:09;99422.25;;;21.79;86.52
43364;BME280;40636;52.424;-1.948;2022-09-12T14:58:38;99423.38;;;21.87;87.92
43364;BME280;40636;52.424;-1.948;2022-09-12T15:06:26;99422.53;;;22.16;87.28
43364;BME280;40636;52.424;-1.948;2022-09-12T15:08:55;99422.34;;;22.21;87.30
43364;BME280;40636;52.424;-1.948;2022-09-12T15:11:23;99421.72;;;22.16;85.58
43364;BME280;40636;52.424;-1.948;2022-09-12T15:13:50;99408.47;;;22.04;83.65
43364;BME280;40636;52.424;-1.948;2022-09-12T15:16:17;99412.59;;;21.98;84.03
43364;BME280;40636;52.424;-1.948;2022-09-12T15:18:44;99417.06;;;21.99;82.79
43364;BME280;40636;52.424;-1.948;2022-09-12T15:21:25;99410.31;;;22.00;84.51
43364;BME280;40636;52.424;-1.948;2022-09-12T15:23:54;99421.50;;;22.00;83.43
43364;BME280;40636;52.424;-1.948;2022-09-12T15:26:23;99414.59;;;21.97;86.48
43364;BME280;40636;52.424;-1.948;2022-09-12T15:28:52;99415.59;;;21.93;84.79
43364;BME280;40636;52.424;-1.948;2022-09-12T15:31:24;99422.84;;;21.94;86.22
43364;BME280;40636;52.424;-1.948;2022-09-12T15:33:53;99415.75;;;21.96;85.38
43364;BME280;40636;52.424;-1.948;2022-09-12T15:36:21;99418.34;;;22.01;85.45
43364;BME280;40636;52.424;-1.948;2022-09-12T15:38:49;99417.53;;;22.01;83.88
43364;BME280;40636;52.424;-1.948;2022-09-12T15:41:21;99420.81;;;22.03;82.89
43364;BME280;40636;52.424;-1.948;2022-09-12T15:43:48;99420.81;;;22.03;84.30
43364;BME280;40636;52.424;-1.948;2022-09-12T15:46:16;99415.53;;;22.01;84.42
43364;BME280;40636;52.424;-1.948;2022-09-12T15:48:43;99412.75;;;22.01;84.17
43364;BME280;40636;52.424;-1.948;2022-09-12T15:51:18;99412.91;;;22.05;84.81
43364;BME280;40636;52.424;-1.948;2022-09-12T15:53:46;99412.69;;;22.10;84.54
43364;BME280;40636;52.424;-1.948;2022-09-12T15:56:16;99415.84;;;22.09;83.47
43364;BME280;40636;52.424;-1.948;2022-09-12T15:58:43;99414.31;;;22.11;83.34
43364;BME280;40636;52.424;-1.948;2022-09-12T16:01:23;99407.31;;;22.05;85.19
43364;BME280;40636;52.424;-1.948;2022-09-12T16:03:52;99407.50;;;22.00;85.95
43364;BME280;40636;52.424;-1.948;2022-09-12T16:06:20;99406.41;;;21.92;85.68
43364;BME280;40636;52.424;-1.948;2022-09-12T16:08:47;99409.91;;;21.89;85.77
43364;BME280;40636;52.424;-1.948;2022-09-12T16:11:21;99407.78;;;21.86;87.35
43364;BME280;40636;52.424;-1.948;2022-09-12T16:13:48;99409.47;;;21.78;85.83
43364;BME280;40636;52.424;-1.948;2022-09-12T16:16:15;99411.78;;;21.76;87.27
43364;BME280;40636;52.424;-1.948;2022-09-12T16:18:42;99406.88;;;21.73;87.16
43364;BME280;40636;52.424;-1.948;2022-09-12T16:21:09;99400.38;;;21.61;86.80
43364;BME280;40636;52.424;-1.948;2022-09-12T16:23:42;99400.66;;;21.38;86.33
43364;BME280;40636;52.424;-1.948;2022-09-12T16:26:09;99396.22;;;21.37;88.30
43364;BME280;40636;52.424;-1.948;2022-09-12T16:28:36;99401.19;;;21.32;87.13
43364;BME280;40636;52.424;-1.948;2022-09-12T16:31:05;99391.31;;;21.25;87.60
43364;BME280;40636;52.424;-1.948;2022-09-12T16:33:33;99395.97;;;21.21;88.67
43364;BME280;40636;52.424;-1.948;2022-09-12T16:36:05;99400.41;;;21.14;87.21
43364;BME280;40636;52.424;-1.948;2022-09-12T16:38:32;99402.72;;;21.12;86.31
43364;BME280;40636;52.424;-1.948;2022-09-12T16:41:01;99395.34;;;21.07;88.12
43364;BME280;40636;52.424;-1.948;2022-09-12T16:43:30;99393.56;;;21.02;88.84
43364;BME280;40636;52.424;-1.948;2022-09-12T16:46:05;99389.84;;;20.90;89.24
43364;BME280;40636;52.424;-1.948;2022-09-12T16:48:33;99389.34;;;20.88;90.94
43364;BME280;40636;52.424;-1.948;2022-09-12T16:51:02;99393.63;;;20.85;95.80